sensor_id;sensor_type;location;lat;lon;timestamp;pressure;altitude;pressure_sealevel;temperature;humidity
15260;BME280;34462;51.368;12.364;2023-05-29T00:01:16;20590.28;;;-141.84;48.45
15260;BME280;34462;51.368;12.364;2023-05-29T00:03:45;20537.44;;;-141.84;49.00
15260;BME280;34462;51.368;12.364;2023-05-29T00:06:13;20547.59;;;-141.84;49.92
15260;BME280;34462;51.368;12.364;2023-05-29T00:08:42;20567.91;;;-141.84;49.07
15260;BME280;34462;51.368;12.364;2023-05-29T00:11:10;20620.78;;;-141.84;49.20
15260;BME280;34462;51.368;12.364;2023-05-29T00:13:38;20624.84;;;-141.84;49.59
15260;BME280;34462;51.368;12.364;2023-05-29T00:16:08;20569.94;;;-141.84;50.33
15260;BME280;34462;51.368;12.364;2023-05-29T00:18:37;20531.31;;;-141.84;51.30
15260;BME280;34462;51.368;12.364;2023-05-29T00:21:12;20525.22;;;-141.84;51.59
15260;BME280;34462;51.368;12.364;2023-05-29T00:23:41;20496.78;;;-141.84;51.78
15260;BME280;34462;51.368;12.364;2023-05-29T00:26:11;20531.31;;;-141.84;51.35
15260;BME280;34462;51.368;12.364;2023-05-29T00:28:40;20533.34;;;-141.84;51.08
15260;BME280;34462;51.368;12.364;2023-05-29T00:31:11;20569.94;;;-141.84;51.26
15260;BME280;34462;51.368;12.364;2023-05-29T00:33:40;20569.94;;;-141.84;51.32
15260;BME280;34462;51.368;12.364;2023-05-29T00:36:09;20578.09;;;-141.84;51.53
15260;BME280;34462;51.368;12.364;2023-05-29T00:38:37;20527.25;;;-141.84;52.22
15260;BME280;34462;51.368;12.364;2023-05-29T00:41:06;20488.63;;;-141.84;52.73
15260;BME280;34462;51.368;12.364;2023-05-29T00:43:34;20464.25;;;-141.84;52.84
15260;BME280;34462;51.368;12.364;2023-05-29T00:46:02;20466.28;;;-141.84;51.73
15260;BME280;34462;51.368;12.364;2023-05-29T00:48:33;20521.16;;;-141.84;51.70
15260;BME280;34462;51.368;12.364;2023-05-29T00:51:01;20545.56;;;-141.84;50.97
15260;BME280;34462;51.368;12.364;2023-05-29T00:53:30;20458.16;;;-141.84;51.31
15260;BME280;34462;51.368;12.364;2023-05-29T00:55:59;20476.44;;;-141.84;51.92
15260;BME280;34462;51.368;12.364;2023-05-29T00:58:27;20466.28;;;-141.84;51.28
15260;BME280;34462;51.368;12.364;2023-05-29T01:00:56;20486.59;;;-141.84;51.20
15260;BME280;34462;51.368;12.364;2023-05-29T01:03:25;20464.25;;;-141.84;51.73
15260;BME280;34462;51.368;12.364;2023-05-29T01:05:56;20415.47;;;-141.84;51.99
15260;BME280;34462;51.368;12.364;2023-05-29T01:08:24;20411.41;;;-141.84;52.57
15260;BME280;34462;51.368;12.364;2023-05-29T01:11:00;20403.25;;;-141.84;53.01
15260;BME280;34462;51.368;12.364;2023-05-29T01:13:35;20389.03;;;-141.84;52.72
15260;BME280;34462;51.368;12.364;2023-05-29T01:16:11;20401.22;;;-141.84;52.75
15260;BME280;34462;51.368;12.364;2023-05-29T01:18:48;20370.75;;;-141.84;53.11
15260;BME280;34462;51.368;12.364;2023-05-29T01:21:36;20374.81;;;-141.84;53.33
15260;BME280;34462;51.368;12.364;2023-05-29T01:24:23;20382.94;;;-141.84;53.79
15260;BME280;34462;51.368;12.364;2023-05-29T01:26:58;20356.50;;;-141.84;53.63
15260;BME280;34462;51.368;12.364;2023-05-29T01:29:29;20360.59;;;-141.84;53.49
15260;BME280;34462;51.368;12.364;2023-05-29T01:32:01;20397.16;;;-141.84;53.33
15260;BME280;34462;51.368;12.364;2023-05-29T01:34:30;20382.94;;;-141.84;53.16
15260;BME280;34462;51.368;12.364;2023-05-29T01:36:58;20382.94;;;-141.84;53.44
15260;BME280;34462;51.368;12.364;2023-05-29T01:39:27;20411.41;;;-141.84;52.62
15260;BME280;34462;51.368;12.364;2023-05-29T01:41:58;20376.84;;;-141.84;53.09
15260;BME280;34462;51.368;12.364;2023-05-29T01:44:28;20352.44;;;-141.84;53.03
15260;BME280;34462;51.368;12.364;2023-05-29T01:46:57;20405.31;;;-141.84;52.80
15260;BME280;34462;51.368;12.364;2023-05-29T01:49:27;20378.88;;;-141.84;52.96
15260;BME280;34462;51.368;12.364;2023-05-29T01:51:57;20393.09;;;-141.84;53.29
15260;BME280;34462;51.368;12.364;2023-05-29T01:54:26;20354.47;;;-141.84;53.64
15260;BME280;34462;51.368;12.364;2023-05-29T01:56:56;20395.13;;;-141.84;53.86
15260;BME280;34462;51.368;12.364;2023-05-29T01:59:25;20340.25;;;-141.84;54.50
15260;BME280;34462;51.368;12.364;2023-05-29T02:01:53;20313.84;;;-141.84;54.61
15260;BME280;34462;51.368;12.364;2023-05-29T02:04:21;20313.84;;;-141.84;55.29
15260;BME280;34462;51.368;12.364;2023-05-29T02:06:50;20285.38;;;-141.84;55.35
15260;BME280;34462;51.368;12.364;2023-05-29T02:09:21;20287.41;;;-141.84;55.42
15260;BME280;34462;51.368;12.364;2023-05-29T02:11:49;20319.94;;;-141.84;55.99
15260;BME280;34462;51.368;12.364;2023-05-29T02:14:19;20248.78;;;-141.84;55.92
15260;BME280;34462;51.368;12.364;2023-05-29T02:16:47;20252.84;;;-141.84;56.07
15260;BME280;34462;51.368;12.364;2023-05-29T02:19:16;20330.09;;;-141.84;55.84
15260;BME280;34462;51.368;12.364;2023-05-29T02:21:47;20275.22;;;-141.84;56.25
15260;BME280;34462;51.368;12.364;2023-05-29T02:24:15;20277.25;;;-141.84;56.70
15260;BME280;34462;51.368;12.364;2023-05-29T02:26:43;20260.97;;;-141.84;56.70
15260;BME280;34462;51.368;12.364;2023-05-29T02:29:11;20228.47;;;-141.84;57.10
15260;BME280;34462;51.368;12.364;2023-05-29T02:31:41;20228.47;;;-141.84;57.19
15260;BME280;34462;51.368;12.364;2023-05-29T02:34:09;20258.94;;;-141.84;57.13
15260;BME280;34462;51.368;12.364;2023-05-29T02:36:37;20285.38;;;-141.84;56.79
15260;BME280;34462;51.368;12.364;2023-05-29T02:39:06;20242.69;;;-141.84;57.05
15260;BME280;34462;51.368;12.364;2023-05-29T02:41:34;20277.25;;;-141.84;56.60
15260;BME280;34462;51.368;12.364;2023-05-29T02:44:03;20250.81;;;-141.84;57.36
15260;BME280;34462;51.368;12.364;2023-05-29T02:46:32;20246.75;;;-141.84;57.66
15260;BME280;34462;51.368;12.364;2023-05-29T02:49:02;20260.97;;;-141.84;57.27
15260;BME280;34462;51.368;12.364;2023-05-29T02:51:30;20240.66;;;-141.84;57.79
15260;BME280;34462;51.368;12.364;2023-05-29T02:53:59;20216.25;;;-141.84;57.51
15260;BME280;34462;51.368;12.364;2023-05-29T02:56:27;20200.00;;;-141.84;58.23
15260;BME280;34462;51.368;12.364;2023-05-29T02:58:55;20200.00;;;-141.84;58.24
15260;BME280;34462;51.368;12.364;2023-05-29T03:01:24;20248.78;;;-141.84;58.09
15260;BME280;34462;51.368;12.364;2023-05-29T03:03:52;20226.44;;;-141.84;58.34
15260;BME280;34462;51.368;12.364;2023-05-29T03:06:21;20220.34;;;-141.84;58.71
15260;BME280;34462;51.368;12.364;2023-05-29T03:08:50;20167.47;;;-141.84;58.80
15260;BME280;34462;51.368;12.364;2023-05-29T03:11:19;20191.88;;;-141.84;58.70
15260;BME280;34462;51.368;12.364;2023-05-29T03:13:50;20193.91;;;-141.84;59.08
15260;BME280;34462;51.368;12.364;2023-05-29T03:16:18;20202.03;;;-141.84;59.03
15260;BME280;34462;51.368;12.364;2023-05-29T03:18:46;20218.31;;;-141.84;58.59
15260;BME280;34462;51.368;12.364;2023-05-29T03:21:16;20220.34;;;-141.84;58.58
15260;BME280;34462;51.368;12.364;2023-05-29T03:23:46;20185.78;;;-141.84;59.25
15260;BME280;34462;51.368;12.364;2023-05-29T03:26:14;20177.66;;;-141.84;59.72
15260;BME280;34462;51.368;12.364;2023-05-29T03:28:42;20179.69;;;-141.84;59.74
15260;BME280;34462;51.368;12.364;2023-05-29T03:31:10;20147.16;;;-141.84;60.19
15260;BME280;34462;51.368;12.364;2023-05-29T03:33:39;20179.69;;;-141.84;60.39
15260;BME280;34462;51.368;12.364;2023-05-29T03:36:08;20151.22;;;-141.84;60.82
15260;BME280;34462;51.368;12.364;2023-05-29T03:38:37;20151.22;;;-141.84;60.90
15260;BME280;34462;51.368;12.364;2023-05-29T03:41:07;20149.19;;;-141.84;60.56
15260;BME280;34462;51.368;12.364;2023-05-29T03:43:35;20147.16;;;-141.84;60.92
15260;BME280;34462;51.368;12.364;2023-05-29T03:46:04;20145.13;;;-141.84;60.51
15260;BME280;34462;51.368;12.364;2023-05-29T03:48:32;20173.59;;;-141.84;60.86
15260;BME280;34462;51.368;12.364;2023-05-29T03:51:00;20165.44;;;-141.84;61.71
15260;BME280;34462;51.368;12.364;2023-05-29T03:53:28;20183.75;;;-141.84;61.55
15260;BME280;34462;51.368;12.364;2023-05-29T03:55:56;20187.81;;;-141.84;61.47
15260;BME280;34462;51.368;12.364;2023-05-29T03:58:26;20153.25;;;-141.84;61.84
15260;BME280;34462;51.368;12.364;2023-05-29T04:00:54;20167.47;;;-141.84;62.06
15260;BME280;34462;51.368;12.364;2023-05-29T04:03:23;20167.47;;;-141.84;61.78
15260;BME280;34462;51.368;12.364;2023-05-29T04:05:51;20232.53;;;-141.84;61.20
15260;BME280;34462;51.368;12.364;2023-05-29T04:08:20;20230.50;;;-141.84;61.58
15260;BME280;34462;51.368;12.364;2023-05-29T04:10:48;20269.13;;;-141.84;61.28
15260;BME280;34462;51.368;12.364;2023-05-29T04:13:20;20256.91;;;-141.84;61.32
15260;BME280;34462;51.368;12.364;2023-05-29T04:15:53;20240.66;;;-141.84;61.50
15260;BME280;34462;51.368;12.364;2023-05-29T04:18:30;20273.19;;;-141.84;61.82
15260;BME280;34462;51.368;12.364;2023-05-29T04:21:08;20279.28;;;-141.84;61.63
15260;BME280;34462;51.368;12.364;2023-05-29T04:23:36;20297.56;;;-141.84;61.94
15260;BME280;34462;51.368;12.364;2023-05-29T04:26:05;20285.38;;;-141.84;62.06
15260;BME280;34462;51.368;12.364;2023-05-29T04:28:33;20311.78;;;-141.84;61.95
15260;BME280;34462;51.368;12.364;2023-05-29T04:31:05;20285.38;;;-141.84;62.34
15260;BME280;34462;51.368;12.364;2023-05-29T04:33:33;20269.13;;;-141.84;62.19
15260;BME280;34462;51.368;12.364;2023-05-29T04:36:04;20291.47;;;-141.84;61.78
15260;BME280;34462;51.368;12.364;2023-05-29T04:38:35;20269.13;;;-141.84;62.13
15260;BME280;34462;51.368;12.364;2023-05-29T04:41:04;20352.44;;;-141.84;61.57
15260;BME280;34462;51.368;12.364;2023-05-29T04:43:35;20332.13;;;-141.84;61.89
15260;BME280;34462;51.368;12.364;2023-05-29T04:46:05;20387.00;;;-141.84;61.57
15260;BME280;34462;51.368;12.364;2023-05-29T04:48:34;20378.88;;;-141.84;61.80
15260;BME280;34462;51.368;12.364;2023-05-29T04:51:02;20594.34;;;-141.84;58.88
15260;BME280;34462;51.368;12.364;2023-05-29T04:53:31;20944.00;;;-141.84;52.79
15260;BME280;34462;51.368;12.364;2023-05-29T04:55:59;21250.97;;;-141.84;48.17
15260;BME280;34462;51.368;12.364;2023-05-29T04:58:27;21570.19;;;-141.84;44.79
15260;BME280;34462;51.368;12.364;2023-05-29T05:00:55;21820.28;;;-141.84;42.83
15260;BME280;34462;51.368;12.364;2023-05-29T05:03:26;22048.03;;;-141.84;39.59
15260;BME280;34462;51.368;12.364;2023-05-29T05:05:54;22166.00;;;-141.84;39.02
15260;BME280;34462;51.368;12.364;2023-05-29T05:08:22;22267.66;;;-141.84;38.66
15260;BME280;34462;51.368;12.364;2023-05-29T05:10:50;22159.88;;;-141.84;38.72
15260;BME280;34462;51.368;12.364;2023-05-29T05:13:19;22192.44;;;-141.84;38.59
15260;BME280;34462;51.368;12.364;2023-05-29T05:15:47;22263.59;;;-141.84;38.77
15260;BME280;34462;51.368;12.364;2023-05-29T05:18:15;22159.88;;;-141.84;39.04
15260;BME280;34462;51.368;12.364;2023-05-29T05:20:45;22104.97;;;-141.84;39.51
15260;BME280;34462;51.368;12.364;2023-05-29T05:23:13;22115.16;;;-141.84;40.41
15260;BME280;34462;51.368;12.364;2023-05-29T05:25:42;22107.00;;;-141.84;39.72
15260;BME280;34462;51.368;12.364;2023-05-29T05:28:10;22029.75;;;-141.84;40.78
15260;BME280;34462;51.368;12.364;2023-05-29T05:30:38;21826.41;;;-141.84;41.41
15260;BME280;34462;51.368;12.364;2023-05-29T05:33:06;21458.38;;;-141.84;45.17
15260;BME280;34462;51.368;12.364;2023-05-29T05:35:35;21281.47;;;-141.84;47.69
15260;BME280;34462;51.368;12.364;2023-05-29T05:38:04;21135.09;;;-141.84;49.84
15260;BME280;34462;51.368;12.364;2023-05-29T05:40:33;21031.41;;;-141.84;51.42
15260;BME280;34462;51.368;12.364;2023-05-29T05:43:01;21000.91;;;-141.84;51.98
15260;BME280;34462;51.368;12.364;2023-05-29T05:45:29;20937.91;;;-141.84;52.87
15260;BME280;34462;51.368;12.364;2023-05-29T05:47:57;20917.56;;;-141.84;53.35
15260;BME280;34462;51.368;12.364;2023-05-29T05:50:26;20919.59;;;-141.84;53.50
15260;BME280;34462;51.368;12.364;2023-05-29T05:52:54;20946.03;;;-141.84;53.24
15260;BME280;34462;51.368;12.364;2023-05-29T05:55:24;20968.38;;;-141.84;53.04
15260;BME280;34462;51.368;12.364;2023-05-29T05:57:53;21000.91;;;-141.84;52.60
15260;BME280;34462;51.368;12.364;2023-05-29T06:00:23;20994.81;;;-141.84;51.35
15260;BME280;34462;51.368;12.364;2023-05-29T06:02:51;20978.56;;;-141.84;51.72
15260;BME280;34462;51.368;12.364;2023-05-29T06:05:19;21035.47;;;-141.84;51.82
15260;BME280;34462;51.368;12.364;2023-05-29T06:07:47;21000.91;;;-141.84;51.28
15260;BME280;34462;51.368;12.364;2023-05-29T06:10:16;21004.97;;;-141.84;51.10
15260;BME280;34462;51.368;12.364;2023-05-29T06:12:45;21002.94;;;-141.84;50.50
15260;BME280;34462;51.368;12.364;2023-05-29T06:15:14;21027.34;;;-141.84;51.01
15260;BME280;34462;51.368;12.364;2023-05-29T06:17:42;21025.31;;;-141.84;50.81
15260;BME280;34462;51.368;12.364;2023-05-29T06:20:11;21037.50;;;-141.84;50.73
15260;BME280;34462;51.368;12.364;2023-05-29T06:22:40;21078.16;;;-141.84;50.38
15260;BME280;34462;51.368;12.364;2023-05-29T06:25:09;21002.94;;;-141.84;50.92
15260;BME280;34462;51.368;12.364;2023-05-29T06:27:37;20990.75;;;-141.84;51.72
15260;BME280;34462;51.368;12.364;2023-05-29T06:30:09;20984.66;;;-141.84;51.52
15260;BME280;34462;51.368;12.364;2023-05-29T06:32:37;20976.53;;;-141.84;51.40
15260;BME280;34462;51.368;12.364;2023-05-29T06:35:06;21025.31;;;-141.84;51.57
15260;BME280;34462;51.368;12.364;2023-05-29T06:37:34;21041.56;;;-141.84;51.15
15260;BME280;34462;51.368;12.364;2023-05-29T06:40:03;21070.03;;;-141.84;51.29
15260;BME280;34462;51.368;12.364;2023-05-29T06:42:33;21009.03;;;-141.84;51.16
15260;BME280;34462;51.368;12.364;2023-05-29T06:45:01;21047.69;;;-141.84;51.30
15260;BME280;34462;51.368;12.364;2023-05-29T06:47:30;21084.28;;;-141.84;51.51
15260;BME280;34462;51.368;12.364;2023-05-29T06:49:59;21045.63;;;-141.84;51.63
15260;BME280;34462;51.368;12.364;2023-05-29T06:52:27;21139.16;;;-141.84;51.09
15260;BME280;34462;51.368;12.364;2023-05-29T06:54:55;21141.19;;;-141.84;49.75
15260;BME280;34462;51.368;12.364;2023-05-29T06:57:23;21147.28;;;-141.84;49.43
15260;BME280;34462;51.368;12.364;2023-05-29T06:59:51;21106.63;;;-141.84;49.41
15260;BME280;34462;51.368;12.364;2023-05-29T07:02:20;21139.16;;;-141.84;49.06
15260;BME280;34462;51.368;12.364;2023-05-29T07:04:49;21155.44;;;-141.84;49.48
15260;BME280;34462;51.368;12.364;2023-05-29T07:07:17;21147.28;;;-141.84;48.91
15260;BME280;34462;51.368;12.364;2023-05-29T07:09:45;21196.09;;;-141.84;49.61
15260;BME280;34462;51.368;12.364;2023-05-29T07:12:14;21163.56;;;-141.84;49.41
15260;BME280;34462;51.368;12.364;2023-05-29T07:14:42;21208.28;;;-141.84;49.24
15260;BME280;34462;51.368;12.364;2023-05-29T07:17:11;21224.56;;;-141.84;48.86
15260;BME280;34462;51.368;12.364;2023-05-29T07:19:39;21232.69;;;-141.84;49.10
15260;BME280;34462;51.368;12.364;2023-05-29T07:22:09;21297.75;;;-141.84;47.91
15260;BME280;34462;51.368;12.364;2023-05-29T07:24:37;21244.88;;;-141.84;47.35
15260;BME280;34462;51.368;12.364;2023-05-29T07:27:05;21253.00;;;-141.84;47.24
15260;BME280;34462;51.368;12.364;2023-05-29T07:29:33;21269.28;;;-141.84;47.32
15260;BME280;34462;51.368;12.364;2023-05-29T07:32:02;21273.34;;;-141.84;47.34
15260;BME280;34462;51.368;12.364;2023-05-29T07:34:30;21230.66;;;-141.84;46.99
15260;BME280;34462;51.368;12.364;2023-05-29T07:37:01;21269.28;;;-141.84;46.75
15260;BME280;34462;51.368;12.364;2023-05-29T07:39:32;21198.13;;;-141.84;47.01
15260;BME280;34462;51.368;12.364;2023-05-29T07:42:01;21226.59;;;-141.84;46.79
15260;BME280;34462;51.368;12.364;2023-05-29T07:44:29;21248.94;;;-141.84;46.85
15260;BME280;34462;51.368;12.364;2023-05-29T07:46:57;21259.13;;;-141.84;47.11
15260;BME280;34462;51.368;12.364;2023-05-29T07:49:26;21311.97;;;-141.84;46.03
15260;BME280;34462;51.368;12.364;2023-05-29T07:51:54;21316.03;;;-141.84;45.31
15260;BME280;34462;51.368;12.364;2023-05-29T07:54:22;21289.59;;;-141.84;45.73
15260;BME280;34462;51.368;12.364;2023-05-29T07:56:52;21291.66;;;-141.84;45.75
15260;BME280;34462;51.368;12.364;2023-05-29T07:59:20;21305.88;;;-141.84;46.03
15260;BME280;34462;51.368;12.364;2023-05-29T08:01:49;21257.09;;;-141.84;45.48
15260;BME280;34462;51.368;12.364;2023-05-29T08:04:17;21303.84;;;-141.84;45.19
15260;BME280;34462;51.368;12.364;2023-05-29T08:06:45;21277.41;;;-141.84;45.43
15260;BME280;34462;51.368;12.364;2023-05-29T08:09:14;21334.34;;;-141.84;44.60
15260;BME280;34462;51.368;12.364;2023-05-29T08:11:42;21293.69;;;-141.84;44.95
15260;BME280;34462;51.368;12.364;2023-05-29T08:14:14;21356.69;;;-141.84;44.93
15260;BME280;34462;51.368;12.364;2023-05-29T08:16:43;21281.47;;;-141.84;45.34
15260;BME280;34462;51.368;12.364;2023-05-29T08:19:11;21338.41;;;-141.84;44.34
15260;BME280;34462;51.368;12.364;2023-05-29T08:21:39;21366.88;;;-141.84;44.19
15260;BME280;34462;51.368;12.364;2023-05-29T08:24:07;21358.75;;;-141.84;44.35
15260;BME280;34462;51.368;12.364;2023-05-29T08:26:36;21372.97;;;-141.84;44.35
15260;BME280;34462;51.368;12.364;2023-05-29T08:29:04;21381.09;;;-141.84;44.85
15260;BME280;34462;51.368;12.364;2023-05-29T08:31:33;21401.44;;;-141.84;44.47
15260;BME280;34462;51.368;12.364;2023-05-29T08:34:03;21431.94;;;-141.84;44.12
15260;BME280;34462;51.368;12.364;2023-05-29T08:36:31;21478.69;;;-141.84;43.62
15260;BME280;34462;51.368;12.364;2023-05-29T08:38:59;21533.59;;;-141.84;42.71
15260;BME280;34462;51.368;12.364;2023-05-29T08:41:41;21629.16;;;-141.84;42.04
15260;BME280;34462;51.368;12.364;2023-05-29T08:44:13;21732.84;;;-141.84;41.33
15260;BME280;34462;51.368;12.364;2023-05-29T08:46:44;21720.66;;;-141.84;41.30
15260;BME280;34462;51.368;12.364;2023-05-29T08:49:17;21704.38;;;-141.84;40.76
15260;BME280;34462;51.368;12.364;2023-05-29T08:51:55;21747.09;;;-141.84;40.64
15260;BME280;34462;51.368;12.364;2023-05-29T08:54:25;21826.41;;;-141.84;40.22
15260;BME280;34462;51.368;12.364;2023-05-29T08:56:54;21842.66;;;-141.84;40.02
15260;BME280;34462;51.368;12.364;2023-05-29T08:59:26;21946.38;;;-141.84;39.61
15260;BME280;34462;51.368;12.364;2023-05-29T09:01:57;21960.59;;;-141.84;39.37
15260;BME280;34462;51.368;12.364;2023-05-29T09:04:27;21956.53;;;-141.84;39.41
15260;BME280;34462;51.368;12.364;2023-05-29T09:06:58;21978.91;;;-141.84;39.37
15260;BME280;34462;51.368;12.364;2023-05-29T09:09:26;21879.25;;;-141.84;39.42
15260;BME280;34462;51.368;12.364;2023-05-29T09:11:56;21909.75;;;-141.84;39.64
15260;BME280;34462;51.368;12.364;2023-05-29T09:14:35;21897.56;;;-141.84;39.62
15260;BME280;34462;51.368;12.364;2023-05-29T09:17:06;21891.47;;;-141.84;39.29
15260;BME280;34462;51.368;12.364;2023-05-29T09:19:36;22003.31;;;-141.84;38.86
15260;BME280;34462;51.368;12.364;2023-05-29T09:22:07;21936.19;;;-141.84;38.94
15260;BME280;34462;51.368;12.364;2023-05-29T09:24:37;21948.41;;;-141.84;39.22
15260;BME280;34462;51.368;12.364;2023-05-29T09:27:07;22019.56;;;-141.84;39.07
15260;BME280;34462;51.368;12.364;2023-05-29T09:29:40;21950.44;;;-141.84;39.23
15260;BME280;34462;51.368;12.364;2023-05-29T09:32:11;21926.03;;;-141.84;39.28
15260;BME280;34462;51.368;12.364;2023-05-29T09:34:41;21895.53;;;-141.84;38.94
15260;BME280;34462;51.368;12.364;2023-05-29T09:37:11;21930.09;;;-141.84;39.18
15260;BME280;34462;51.368;12.364;2023-05-29T09:39:45;21968.72;;;-141.84;39.60
15260;BME280;34462;51.368;12.364;2023-05-29T09:42:15;21942.31;;;-141.84;38.96
15260;BME280;34462;51.368;12.364;2023-05-29T09:44:48;21926.03;;;-141.84;39.42
15260;BME280;34462;51.368;12.364;2023-05-29T09:47:19;21944.34;;;-141.84;39.35
15260;BME280;34462;51.368;12.364;2023-05-29T09:49:47;21838.59;;;-141.84;39.71
15260;BME280;34462;51.368;12.364;2023-05-29T09:52:21;21846.72;;;-141.84;40.09
15260;BME280;34462;51.368;12.364;2023-05-29T09:54:51;21858.94;;;-141.84;39.60
15260;BME280;34462;51.368;12.364;2023-05-29T09:57:21;21879.25;;;-141.84;39.97
15260;BME280;34462;51.368;12.364;2023-05-29T09:59:52;21885.38;;;-141.84;39.24
15260;BME280;34462;51.368;12.364;2023-05-29T10:02:22;21901.63;;;-141.84;39.06
15260;BME280;34462;51.368;12.364;2023-05-29T10:04:51;21968.72;;;-141.84;38.44
15260;BME280;34462;51.368;12.364;2023-05-29T10:07:26;21962.63;;;-141.84;38.65
15260;BME280;34462;51.368;12.364;2023-05-29T10:10:01;21970.78;;;-141.84;38.94
15260;BME280;34462;51.368;12.364;2023-05-29T10:12:32;21895.53;;;-141.84;39.06
15260;BME280;34462;51.368;12.364;2023-05-29T10:15:09;21877.22;;;-141.84;39.12
15260;BME280;34462;51.368;12.364;2023-05-29T10:17:49;21897.56;;;-141.84;38.92
15260;BME280;34462;51.368;12.364;2023-05-29T10:20:20;21899.59;;;-141.84;38.58
15260;BME280;34462;51.368;12.364;2023-05-29T10:22:54;21917.91;;;-141.84;38.34
15260;BME280;34462;51.368;12.364;2023-05-29T10:25:27;21895.53;;;-141.84;38.72
15260;BME280;34462;51.368;12.364;2023-05-29T10:27:58;21897.56;;;-141.84;38.85
15260;BME280;34462;51.368;12.364;2023-05-29T10:30:35;21877.22;;;-141.84;38.42
15260;BME280;34462;51.368;12.364;2023-05-29T10:33:38;21863.00;;;-141.84;38.95
15260;BME280;34462;51.368;12.364;2023-05-29T10:36:13;21940.25;;;-141.84;38.60
15260;BME280;34462;51.368;12.364;2023-05-29T10:38:45;21911.78;;;-141.84;38.68
15260;BME280;34462;51.368;12.364;2023-05-29T10:41:32;21915.88;;;-141.84;37.57
15260;BME280;34462;51.368;12.364;2023-05-29T10:44:39;21893.50;;;-141.84;37.59
15260;BME280;34462;51.368;12.364;2023-05-29T10:47:08;21909.75;;;-141.84;37.72
15260;BME280;34462;51.368;12.364;2023-05-29T10:49:49;21938.22;;;-141.84;37.48
15260;BME280;34462;51.368;12.364;2023-05-29T10:52:19;21952.47;;;-141.84;37.61
15260;BME280;34462;51.368;12.364;2023-05-29T10:54:53;21924.00;;;-141.84;37.81
15260;BME280;34462;51.368;12.364;2023-05-29T10:57:22;21936.19;;;-141.84;37.01
15260;BME280;34462;51.368;12.364;2023-05-29T11:00:05;21966.69;;;-141.84;36.37
15260;BME280;34462;51.368;12.364;2023-05-29T11:02:40;21964.66;;;-141.84;36.20
15260;BME280;34462;51.368;12.364;2023-05-29T11:05:28;21964.66;;;-141.84;36.08
15260;BME280;34462;51.368;12.364;2023-05-29T11:07:58;21989.06;;;-141.84;37.11
15260;BME280;34462;51.368;12.364;2023-05-29T11:10:45;21972.81;;;-141.84;37.55
15260;BME280;34462;51.368;12.364;2023-05-29T11:13:25;22005.34;;;-141.84;37.06
15260;BME280;34462;51.368;12.364;2023-05-29T11:16:36;22094.81;;;-141.84;36.88
15260;BME280;34462;51.368;12.364;2023-05-29T11:19:06;22086.69;;;-141.84;36.46
15260;BME280;34462;51.368;12.364;2023-05-29T11:22:06;22096.84;;;-141.84;36.36
15260;BME280;34462;51.368;12.364;2023-05-29T11:24:39;22113.13;;;-141.84;36.73
15260;BME280;34462;51.368;12.364;2023-05-29T11:27:08;22139.56;;;-141.84;36.25
15260;BME280;34462;51.368;12.364;2023-05-29T11:29:37;22174.13;;;-141.84;36.21
15260;BME280;34462;51.368;12.364;2023-05-29T11:32:13;22107.00;;;-141.84;36.10
15260;BME280;34462;51.368;12.364;2023-05-29T11:34:44;22068.38;;;-141.84;36.29
15260;BME280;34462;51.368;12.364;2023-05-29T11:37:16;21972.81;;;-141.84;37.40
15260;BME280;34462;51.368;12.364;2023-05-29T11:39:46;21940.25;;;-141.84;37.38
15260;BME280;34462;51.368;12.364;2023-05-29T11:42:15;22109.03;;;-141.84;36.48
15260;BME280;34462;51.368;12.364;2023-05-29T11:44:43;22137.50;;;-141.84;36.01
15260;BME280;34462;51.368;12.364;2023-05-29T11:47:11;22218.84;;;-141.84;36.37
15260;BME280;34462;51.368;12.364;2023-05-29T11:49:42;22290.03;;;-141.84;35.47
15260;BME280;34462;51.368;12.364;2023-05-29T11:52:12;22296.13;;;-141.84;35.19
15260;BME280;34462;51.368;12.364;2023-05-29T11:54:44;22235.13;;;-141.84;35.50
15260;BME280;34462;51.368;12.364;2023-05-29T11:57:18;22300.22;;;-141.84;35.04
15260;BME280;34462;51.368;12.364;2023-05-29T11:59:47;22308.34;;;-141.84;34.95
15260;BME280;34462;51.368;12.364;2023-05-29T12:02:15;22326.66;;;-141.84;34.71
15260;BME280;34462;51.368;12.364;2023-05-29T12:04:43;22326.66;;;-141.84;34.95
15260;BME280;34462;51.368;12.364;2023-05-29T12:07:18;22292.06;;;-141.84;35.31
15260;BME280;34462;51.368;12.364;2023-05-29T12:09:47;22202.59;;;-141.84;35.63
15260;BME280;34462;51.368;12.364;2023-05-29T12:12:19;22155.81;;;-141.84;35.48
15260;BME280;34462;51.368;12.364;2023-05-29T12:14:50;22220.91;;;-141.84;35.38
15260;BME280;34462;51.368;12.364;2023-05-29T12:17:20;22208.69;;;-141.84;35.24
15260;BME280;34462;51.368;12.364;2023-05-29T12:19:48;22253.44;;;-141.84;34.78
15260;BME280;34462;51.368;12.364;2023-05-29T12:22:17;22290.03;;;-141.84;35.02
15260;BME280;34462;51.368;12.364;2023-05-29T12:24:47;22320.53;;;-141.84;35.32
15260;BME280;34462;51.368;12.364;2023-05-29T12:27:15;22192.44;;;-141.84;35.43
15260;BME280;34462;51.368;12.364;2023-05-29T12:29:44;22127.34;;;-141.84;35.91
15260;BME280;34462;51.368;12.364;2023-05-29T12:32:12;22182.25;;;-141.84;35.38
15260;BME280;34462;51.368;12.364;2023-05-29T12:34:40;22261.56;;;-141.84;35.14
15260;BME280;34462;51.368;12.364;2023-05-29T12:37:09;22275.81;;;-141.84;35.02
15260;BME280;34462;51.368;12.364;2023-05-29T12:39:41;22320.53;;;-141.84;34.99
15260;BME280;34462;51.368;12.364;2023-05-29T12:42:11;22367.31;;;-141.84;34.72
15260;BME280;34462;51.368;12.364;2023-05-29T12:44:42;22473.06;;;-141.84;33.90
15260;BME280;34462;51.368;12.364;2023-05-29T12:47:14;22584.94;;;-141.84;33.38